Time;durP1;ratioP1;P1;durP2;ratioP2;P2;SDS_P1;SDS_P2;PMS_P1;PMS_P2;Temp;Humidity;BMP_temperature;BMP_pressure;BME280_temperature;BME280_humidity;BME280_pressure;Samples;Min_cycle;Max_cycle;Signal;HPM_P1;HPM_P2
2023/12/27 00:01:22;;;;;;;8.87;2.67;;;2.90;99.90;;;;;;4960637;28;20219;-82
2023/12/27 00:03:49;;;;;;;9.50;2.10;;;2.90;99.90;;;;;;4964511;28;20552;-82
2023/12/27 00:06:17;;;;;;;13.47;2.73;;;2.90;99.90;;;;;;4963835;28;20228;-82
2023/12/27 00:08:44;;;;;;;14.80;2.67;;;2.90;99.90;;;;;;4965662;28;20258;-83
2023/12/27 00:11:10;;;;;;;13.53;2.43;;;2.90;99.90;;;;;;4965011;28;20231;-83
2023/12/27 00:13:37;;;;;;;11.43;2.43;;;2.90;99.90;;;;;;4960699;28;20315;-83
2023/12/27 00:16:05;;;;;;;13.40;2.73;;;2.90;99.90;;;;;;4958217;28;20221;-83
2023/12/27 00:18:31;;;;;;;16.00;2.60;;;2.90;99.90;;;;;;4974231;28;20240;-83
2023/12/27 00:20:58;;;;;;;9.70;2.83;;;2.90;99.90;;;;;;4958396;28;20717;-83
2023/12/27 00:23:27;;;;;;;10.60;2.30;;;2.90;99.90;;;;;;4987415;28;20625;-83
2023/12/27 00:25:54;;;;;;;14.57;2.57;;;2.90;99.90;;;;;;4988136;28;20552;-83
2023/12/27 00:28:21;;;;;;;9.23;2.67;;;2.80;99.90;;;;;;4966128;28;20357;-82
2023/12/27 00:30:48;;;;;;;11.13;2.63;;;2.80;99.90;;;;;;4967074;28;20307;-82
2023/12/27 00:33:15;;;;;;;10.63;2.43;;;2.80;99.90;;;;;;4960355;28;20236;-81
2023/12/27 00:35:42;;;;;;;16.97;2.23;;;2.80;99.90;;;;;;4963355;28;20233;-81
2023/12/27 00:38:10;;;;;;;9.03;2.03;;;2.80;99.90;;;;;;4962942;28;20273;-81
2023/12/27 00:40:38;;;;;;;12.50;2.03;;;2.80;99.90;;;;;;4960409;28;20448;-81
2023/12/27 00:43:05;;;;;;;11.40;2.50;;;2.80;99.90;;;;;;4960778;28;20307;-80
2023/12/27 00:45:32;;;;;;;13.67;2.93;;;2.80;99.90;;;;;;4994507;28;20726;-82
2023/12/27 00:47:59;;;;;;;12.83;2.43;;;2.80;99.90;;;;;;4964050;28;20274;-82
2023/12/27 00:50:26;;;;;;;7.63;1.93;;;2.80;99.90;;;;;;4961981;28;20230;-82
2023/12/27 00:52:52;;;;;;;14.77;2.53;;;2.80;99.90;;;;;;4963598;28;20223;-82
2023/12/27 00:55:19;;;;;;;12.80;2.40;;;2.80;99.90;;;;;;4969227;28;20512;-82
2023/12/27 00:57:47;;;;;;;11.70;2.57;;;2.80;99.90;;;;;;4962535;28;20275;-81
2023/12/27 01:00:15;;;;;;;9.00;2.23;;;2.80;99.90;;;;;;4962064;28;20449;-82
2023/12/27 01:02:42;;;;;;;16.00;2.90;;;2.90;99.90;;;;;;4964270;28;20232;-82
2023/12/27 01:05:10;;;;;;;9.67;2.17;;;2.80;99.90;;;;;;4970500;28;20231;-82
2023/12/27 01:07:37;;;;;;;10.37;2.43;;;2.80;99.90;;;;;;4966351;28;20433;-82
2023/12/27 01:10:05;;;;;;;13.43;2.50;;;2.80;99.90;;;;;;4964541;28;20714;-81
2023/12/27 01:12:32;;;;;;;13.97;2.50;;;2.90;99.90;;;;;;4958424;28;20525;-81
2023/12/27 01:15:00;;;;;;;17.33;2.13;;;2.80;99.90;;;;;;4967329;28;20578;-81
2023/12/27 01:17:27;;;;;;;15.37;2.33;;;2.80;99.90;;;;;;4982148;28;20224;-81
2023/12/27 01:19:54;;;;;;;13.53;1.97;;;2.80;99.90;;;;;;4968080;28;20829;-82
2023/12/27 01:22:20;;;;;;;13.97;2.50;;;2.80;99.90;;;;;;4969409;28;20226;-81
2023/12/27 01:24:47;;;;;;;8.60;2.77;;;2.80;99.90;;;;;;4963275;28;20599;-81
2023/12/27 01:27:14;;;;;;;11.80;2.10;;;2.80;99.90;;;;;;4966889;28;20805;-81
2023/12/27 01:29:41;;;;;;;8.40;2.10;;;2.80;99.90;;;;;;4966675;28;20322;-81
2023/12/27 01:32:10;;;;;;;9.40;2.13;;;2.80;99.90;;;;;;4962266;28;20742;-81
2023/12/27 01:34:38;;;;;;;9.07;2.70;;;2.80;99.90;;;;;;4967184;28;20336;-81
2023/12/27 01:37:05;;;;;;;12.07;2.10;;;2.80;99.90;;;;;;4966287;28;20214;-81
2023/12/27 01:39:32;;;;;;;8.10;2.30;;;2.80;99.90;;;;;;4966976;28;20611;-80
2023/12/27 01:41:58;;;;;;;9.33;2.37;;;2.80;99.90;;;;;;4965988;28;20729;-81
2023/12/27 01:44:25;;;;;;;9.50;1.90;;;2.90;99.90;;;;;;4965660;28;20347;-82
2023/12/27 01:46:52;;;;;;;8.30;2.10;;;2.90;99.90;;;;;;4963844;28;20280;-81
2023/12/27 01:49:20;;;;;;;12.37;2.17;;;2.90;99.90;;;;;;4968885;28;20236;-82
2023/12/27 01:51:47;;;;;;;10.17;2.80;;;2.90;99.90;;;;;;4980992;28;20314;-81
2023/12/27 01:54:14;;;;;;;8.07;2.00;;;2.90;99.90;;;;;;4968028;28;20232;-81
2023/12/27 01:56:44;;;;;;;9.30;2.13;;;2.80;99.90;;;;;;4963576;28;20773;-81
2023/12/27 01:59:11;;;;;;;6.57;2.67;;;2.80;99.90;;;;;;4963389;28;20282;-81
2023/12/27 02:01:39;;;;;;;8.23;1.83;;;2.80;99.90;;;;;;4965372;28;20257;-81
2023/12/27 02:04:07;;;;;;;11.53;2.30;;;2.80;99.90;;;;;;4966998;28;20255;-81
2023/12/27 02:06:36;;;;;;;10.10;2.23;;;2.70;99.90;;;;;;4965244;28;21097;-81
2023/12/27 02:09:03;;;;;;;13.90;3.03;;;2.70;99.90;;;;;;5001482;28;20304;-82
2023/12/27 02:11:30;;;;;;;7.87;2.10;;;2.60;99.90;;;;;;4963983;28;20233;-82
2023/12/27 02:13:57;;;;;;;8.23;2.30;;;2.60;99.90;;;;;;4958542;28;20218;-83
2023/12/27 02:16:23;;;;;;;11.60;2.27;;;2.50;99.90;;;;;;4968106;28;20657;-82
2023/12/27 02:18:50;;;;;;;12.27;2.40;;;2.50;99.90;;;;;;4965413;28;20243;-82
2023/12/27 02:21:18;;;;;;;7.10;1.80;;;2.50;99.90;;;;;;4967556;28;20559;-82
2023/12/27 02:23:49;;;;;;;11.07;2.60;;;2.40;99.90;;;;;;4969116;28;20332;-81
2023/12/27 02:26:17;;;;;;;8.97;2.00;;;2.40;99.90;;;;;;4966196;28;20222;-81
2023/12/27 02:28:44;;;;;;;14.50;3.00;;;2.40;99.90;;;;;;4993204;28;20266;-81
2023/12/27 02:31:11;;;;;;;9.73;2.20;;;2.30;99.90;;;;;;4970854;28;20309;-81
2023/12/27 02:33:43;;;;;;;14.43;2.40;;;2.30;99.90;;;;;;4967205;28;21012;-81
2023/12/27 02:36:10;;;;;;;15.20;3.03;;;2.20;99.90;;;;;;4966810;28;20222;-81
2023/12/27 02:38:36;;;;;;;9.43;2.57;;;2.20;99.90;;;;;;4969500;28;20300;-81
2023/12/27 02:41:04;;;;;;;10.03;2.67;;;2.20;99.90;;;;;;4968751;28;20247;-81
2023/12/27 02:43:33;;;;;;;11.70;2.37;;;2.20;99.90;;;;;;4965324;28;20258;-81
2023/12/27 02:46:00;;;;;;;12.23;2.43;;;2.20;99.90;;;;;;4969529;28;20244;-81
2023/12/27 02:48:27;;;;;;;8.97;2.60;;;2.10;99.90;;;;;;4964448;28;20309;-81
2023/12/27 02:50:53;;;;;;;12.10;2.53;;;2.10;99.90;;;;;;4968468;28;20235;-83
2023/12/27 02:53:20;;;;;;;10.73;2.07;;;2.10;99.90;;;;;;4962776;28;20662;-83
2023/12/27 02:55:47;;;;;;;12.63;3.30;;;2.00;99.90;;;;;;4961413;28;20768;-83
2023/12/27 02:58:14;;;;;;;8.13;2.20;;;2.00;99.90;;;;;;4963690;28;20318;-83
2023/12/27 03:00:45;;;;;;;12.90;2.83;;;2.00;99.90;;;;;;4962333;28;20236;-83
2023/12/27 03:03:12;;;;;;;11.07;2.13;;;2.00;99.90;;;;;;4959561;28;20251;-83
2023/12/27 03:05:40;;;;;;;8.43;1.90;;;2.00;99.90;;;;;;4961332;28;20390;-83
2023/12/27 03:08:07;;;;;;;10.63;2.33;;;2.00;99.90;;;;;;4963571;28;20577;-82
2023/12/27 03:10:33;;;;;;;9.50;2.70;;;2.00;99.90;;;;;;4959429;28;20532;-83
2023/12/27 03:13:00;;;;;;;10.53;2.00;;;2.00;99.90;;;;;;4961836;28;20739;-82
2023/12/27 03:16:14;;;;;;;14.13;2.63;;;1.90;99.90;;;;;;4962066;28;20323;-82
2023/12/27 03:18:42;;;;;;;8.83;2.60;;;1.90;99.90;;;;;;4958344;28;20257;-83
2023/12/27 03:21:09;;;;;;;13.90;2.67;;;1.90;99.90;;;;;;4958901;28;20745;-84
2023/12/27 03:23:35;;;;;;;8.83;2.10;;;1.90;99.90;;;;;;4956267;28;20455;-84
2023/12/27 03:26:02;;;;;;;9.07;2.10;;;1.90;99.90;;;;;;4977413;28;20317;-84
2023/12/27 03:28:29;;;;;;;8.57;2.70;;;1.90;99.90;;;;;;4953045;28;20238;-84
2023/12/27 03:30:56;;;;;;;13.10;1.90;;;1.80;99.90;;;;;;4963878;28;20237;-84
2023/12/27 03:33:23;;;;;;;10.77;2.50;;;1.90;99.90;;;;;;4960474;28;20277;-83
2023/12/27 03:35:51;;;;;;;9.10;2.10;;;1.80;99.90;;;;;;4959528;28;20716;-83
2023/12/27 03:38:18;;;;;;;7.77;3.07;;;1.80;99.90;;;;;;4961253;28;20707;-83
2023/12/27 03:40:45;;;;;;;6.47;1.70;;;1.80;99.90;;;;;;4961475;28;20588;-84
2023/12/27 03:43:12;;;;;;;10.97;2.10;;;1.80;99.90;;;;;;4959578;28;20517;-84
2023/12/27 03:45:39;;;;;;;7.73;2.03;;;1.80;99.90;;;;;;4957385;28;20290;-84
2023/12/27 03:48:06;;;;;;;9.60;2.47;;;1.80;99.90;;;;;;4964147;28;20777;-84
2023/12/27 03:50:33;;;;;;;11.17;2.30;;;1.80;99.90;;;;;;4965337;28;20226;-84
2023/12/27 03:53:01;;;;;;;8.47;2.63;;;1.70;99.90;;;;;;4960647;28;20708;-84
2023/12/27 03:55:27;;;;;;;12.33;2.10;;;1.70;99.90;;;;;;4954294;28;20251;-84
2023/12/27 03:57:54;;;;;;;11.17;2.17;;;1.70;99.90;;;;;;4971182;28;20227;-84
2023/12/27 04:00:21;;;;;;;8.70;2.30;;;1.70;99.90;;;;;;4957963;28;20232;-84
2023/12/27 04:02:48;;;;;;;9.47;2.10;;;1.70;99.90;;;;;;4960670;28;20227;-84
2023/12/27 04:05:15;;;;;;;11.37;2.50;;;1.70;99.90;;;;;;4961396;28;20355;-85
2023/12/27 04:07:42;;;;;;;9.90;2.20;;;1.60;99.90;;;;;;4961163;28;20235;-84
2023/12/27 04:10:10;;;;;;;8.67;2.20;;;1.50;99.90;;;;;;4957279;28;20247;-85
2023/12/27 04:12:37;;;;;;;12.67;2.20;;;1.60;99.90;;;;;;4957330;28;20226;-85
2023/12/27 04:15:04;;;;;;;7.57;2.20;;;1.60;99.90;;;;;;4967978;28;20239;-85
2023/12/27 04:17:31;;;;;;;9.83;2.20;;;1.50;99.90;;;;;;4990416;28;20226;-84
2023/12/27 04:19:58;;;;;;;8.23;2.03;;;1.50;99.90;;;;;;4961832;28;20229;-85
2023/12/27 04:22:25;;;;;;;11.90;1.83;;;1.60;99.90;;;;;;4951361;28;20254;-84
2023/12/27 04:24:52;;;;;;;7.93;2.10;;;1.50;99.90;;;;;;4980798;28;20706;-85
2023/12/27 04:27:20;;;;;;;10.60;2.00;;;1.40;99.90;;;;;;4958922;28;21908;-85
2023/12/27 04:29:47;;;;;;;10.43;2.40;;;1.40;99.90;;;;;;4959194;28;20300;-85
2023/12/27 04:32:14;;;;;;;10.27;2.03;;;1.50;99.90;;;;;;4962072;28;20283;-84
2023/12/27 04:34:41;;;;;;;11.70;2.43;;;1.40;99.90;;;;;;4977697;28;20239;-85
2023/12/27 04:37:08;;;;;;;7.73;2.23;;;1.40;99.90;;;;;;4961083;28;20236;-85
2023/12/27 04:39:35;;;;;;;7.73;2.27;;;1.40;99.90;;;;;;4961001;28;20253;-84
2023/12/27 04:42:01;;;;;;;9.00;2.10;;;1.40;99.90;;;;;;4965905;28;20608;-84
2023/12/27 04:44:29;;;;;;;9.83;2.27;;;1.40;99.90;;;;;;4970527;28;20768;-84
2023/12/27 04:46:57;;;;;;;9.57;2.43;;;1.30;99.90;;;;;;4963089;28;20232;-84
2023/12/27 04:49:23;;;;;;;10.87;2.40;;;1.30;99.90;;;;;;4957941;28;20555;-85
2023/12/27 04:51:50;;;;;;;12.47;2.30;;;1.20;99.90;;;;;;4960186;28;20222;-85
2023/12/27 04:54:18;;;;;;;13.87;2.80;;;1.20;99.90;;;;;;4964022;28;20223;-85
2023/12/27 04:56:45;;;;;;;12.37;2.47;;;1.20;99.90;;;;;;4956880;28;20226;-85
2023/12/27 04:59:11;;;;;;;9.13;1.97;;;1.10;99.90;;;;;;4962047;28;20228;-85
2023/12/27 05:01:39;;;;;;;8.20;2.60;;;1.10;99.90;;;;;;4977136;28;20270;-84
2023/12/27 05:04:07;;;;;;;7.37;2.07;;;1.00;99.90;;;;;;4966060;28;20241;-83
2023/12/27 05:06:33;;;;;;;13.03;2.60;;;1.00;99.90;;;;;;4985277;28;20230;-82
2023/12/27 05:09:04;;;;;;;12.00;2.30;;;0.90;99.90;;;;;;4963343;28;20241;-82
2023/12/27 05:11:30;;;;;;;17.40;2.73;;;0.90;99.90;;;;;;4962348;28;20230;-82
2023/12/27 05:13:57;;;;;;;53.23;4.43;;;0.80;99.90;;;;;;4964538;28;20313;-83
2023/12/27 05:16:24;;;;;;;41.20;4.17;;;0.80;99.90;;;;;;4959685;28;20224;-83
2023/12/27 05:18:52;;;;;;;9.07;2.53;;;0.70;99.90;;;;;;4965174;28;20616;-84
2023/12/27 05:21:19;;;;;;;15.63;2.50;;;0.70;99.90;;;;;;4961534;28;20249;-84
2023/12/27 05:23:46;;;;;;;49.50;4.43;;;0.70;99.90;;;;;;4963866;28;20568;-83
2023/12/27 05:26:13;;;;;;;11.33;2.40;;;0.60;99.90;;;;;;4963051;28;20642;-83
2023/12/27 05:28:41;;;;;;;13.37;2.70;;;0.60;99.90;;;;;;4965430;28;20224;-83
2023/12/27 05:31:08;;;;;;;17.30;3.77;;;0.60;99.90;;;;;;4960824;28;20256;-83
2023/12/27 05:33:35;;;;;;;13.83;3.00;;;0.50;99.90;;;;;;4967979;28;20283;-83
2023/12/27 05:36:03;;;;;;;39.13;4.57;;;0.50;99.90;;;;;;4966379;28;20707;-83
2023/12/27 05:38:30;;;;;;;14.90;3.27;;;0.50;99.90;;;;;;4960472;28;20285;-83
2023/12/27 05:40:57;;;;;;;17.13;3.07;;;0.50;99.90;;;;;;4961348;28;20804;-83
2023/12/27 05:43:24;;;;;;;11.27;2.30;;;0.50;99.90;;;;;;4964144;28;20226;-84
2023/12/27 05:45:50;;;;;;;12.70;2.20;;;0.50;99.90;;;;;;4966290;28;20232;-83
2023/12/27 05:48:17;;;;;;;12.73;2.30;;;0.50;99.90;;;;;;4962304;28;20325;-82
2023/12/27 05:50:44;;;;;;;15.90;2.67;;;0.50;99.90;;;;;;4962157;28;20232;-83
2023/12/27 05:53:12;;;;;;;10.13;2.03;;;0.60;99.90;;;;;;4960322;28;20328;-83
2023/12/27 05:55:39;;;;;;;9.77;2.20;;;0.60;99.90;;;;;;4944556;28;20257;-89
2023/12/27 05:58:06;;;;;;;13.03;2.50;;;0.60;99.90;;;;;;4948139;28;20252;-83
2023/12/27 06:00:33;;;;;;;14.87;2.90;;;0.60;99.90;;;;;;4962836;28;20230;-82
2023/12/27 06:02:59;;;;;;;9.90;3.00;;;0.70;99.90;;;;;;4963662;28;20322;-83
2023/12/27 06:05:26;;;;;;;14.00;2.23;;;0.70;99.90;;;;;;4965748;28;20236;-83
2023/12/27 06:07:53;;;;;;;10.03;2.20;;;0.60;99.90;;;;;;4988750;28;20229;-82
2023/12/27 06:10:21;;;;;;;16.37;3.10;;;0.60;99.90;;;;;;4969739;28;20228;-82
2023/12/27 06:12:48;;;;;;;10.97;2.03;;;0.60;99.90;;;;;;4970194;28;20785;-82
2023/12/27 06:15:15;;;;;;;18.03;3.37;;;0.60;99.90;;;;;;4976845;28;20228;-82
2023/12/27 06:17:42;;;;;;;10.67;2.37;;;0.60;99.90;;;;;;4998560;28;20250;-82
2023/12/27 06:20:10;;;;;;;16.60;2.63;;;0.60;99.90;;;;;;4967634;28;20228;-83
2023/12/27 06:22:37;;;;;;;14.10;2.97;;;0.50;99.90;;;;;;4968898;28;20347;-83
2023/12/27 06:25:04;;;;;;;12.87;2.73;;;0.50;99.90;;;;;;4966647;28;20818;-82
2023/12/27 06:27:33;;;;;;;9.80;2.50;;;0.50;99.90;;;;;;4973639;28;20238;-82
2023/12/27 06:30:00;;;;;;;10.73;2.53;;;0.50;99.90;;;;;;4961577;28;20238;-82
2023/12/27 06:32:27;;;;;;;9.97;2.30;;;0.50;99.90;;;;;;4965147;28;20240;-84
2023/12/27 06:34:53;;;;;;;7.67;2.30;;;0.50;99.90;;;;;;4969972;28;20328;-83
2023/12/27 06:37:21;;;;;;;8.77;2.37;;;0.50;99.90;;;;;;4969756;28;20231;-83
2023/12/27 06:39:48;;;;;;;12.47;2.57;;;0.40;99.90;;;;;;4964458;28;20220;-83
2023/12/27 06:42:15;;;;;;;9.90;2.37;;;0.40;99.90;;;;;;4962642;28;20231;-82
2023/12/27 06:44:43;;;;;;;12.33;2.90;;;0.40;99.90;;;;;;4967897;28;20503;-83
2023/12/27 06:47:10;;;;;;;12.87;3.47;;;0.40;99.90;;;;;;4949424;28;20334;-84
2023/12/27 06:49:37;;;;;;;11.03;2.50;;;0.30;99.90;;;;;;4967845;28;20540;-84
2023/12/27 06:52:04;;;;;;;26.13;9.03;;;0.30;99.90;;;;;;4967187;28;20297;-83
2023/12/27 06:54:31;;;;;;;10.57;3.73;;;0.30;99.90;;;;;;4962415;28;20775;-83
2023/12/27 06:56:59;;;;;;;11.60;3.97;;;0.40;99.90;;;;;;4964928;28;20324;-84
2023/12/27 06:59:26;;;;;;;23.87;14.20;;;0.30;99.90;;;;;;4981044;28;20235;-84
2023/12/27 07:01:54;;;;;;;60.50;9.60;;;0.20;99.90;;;;;;4950917;28;20238;-82
2023/12/27 07:04:21;;;;;;;15.53;3.10;;;0.20;99.90;;;;;;4959137;28;20305;-82
2023/12/27 07:06:48;;;;;;;29.67;3.90;;;0.20;99.90;;;;;;4969933;28;20317;-84
2023/12/27 07:09:15;;;;;;;15.27;2.73;;;0.20;99.90;;;;;;4979017;28;20244;-84
2023/12/27 07:11:42;;;;;;;7.77;3.13;;;0.30;99.90;;;;;;4984624;28;20310;-83
2023/12/27 07:14:09;;;;;;;23.03;3.07;;;0.20;99.90;;;;;;4966793;28;20250;-83
2023/12/27 07:16:36;;;;;;;128.73;7.37;;;0.30;99.90;;;;;;4965428;28;20224;-83
2023/12/27 07:19:04;;;;;;;15.40;4.70;;;0.30;99.90;;;;;;4965154;28;20258;-84
2023/12/27 07:21:31;;;;;;;13.93;5.27;;;0.30;99.90;;;;;;4969638;28;20244;-83
2023/12/27 07:23:57;;;;;;;13.17;5.13;;;0.30;99.90;;;;;;4967666;28;20315;-83
2023/12/27 07:26:24;;;;;;;10.27;4.60;;;0.30;99.90;;;;;;4983129;28;20228;-83
2023/12/27 07:28:51;;;;;;;17.33;7.07;;;0.40;99.90;;;;;;4966241;28;20313;-83
2023/12/27 07:31:18;;;;;;;28.77;9.87;;;0.40;99.90;;;;;;4965948;28;20282;-84
2023/12/27 07:33:44;;;;;;;21.37;11.53;;;0.50;99.90;;;;;;4966476;28;20766;-82
2023/12/27 07:36:12;;;;;;;18.27;8.27;;;0.50;99.90;;;;;;4968040;28;20255;-82
2023/12/27 07:38:39;;;;;;;16.37;7.57;;;0.50;99.90;;;;;;4969752;28;20230;-83
2023/12/27 07:41:06;;;;;;;12.87;5.60;;;0.50;99.90;;;;;;4999234;28;20651;-84
2023/12/27 07:43:35;;;;;;;12.40;3.27;;;0.50;99.90;;;;;;4979287;28;20327;-83
2023/12/27 07:46:02;;;;;;;9.10;3.63;;;0.50;99.90;;;;;;4969252;28;20214;-83
2023/12/27 07:48:29;;;;;;;9.00;3.50;;;0.50;99.90;;;;;;4962576;28;20739;-83
2023/12/27 07:50:56;;;;;;;9.90;3.43;;;0.50;99.90;;;;;;4969481;28;20233;-83
2023/12/27 07:53:24;;;;;;;149.87;12.80;;;0.50;99.90;;;;;;4965056;28;20228;-83
2023/12/27 07:55:51;;;;;;;12.00;3.07;;;0.40;99.90;;;;;;4967370;28;20231;-84
2023/12/27 07:58:17;;;;;;;7.97;2.63;;;0.40;99.90;;;;;;4966198;28;20241;-83
2023/12/27 08:00:44;;;;;;;7.97;2.93;;;0.40;99.90;;;;;;4964846;28;20295;-83
2023/12/27 08:03:11;;;;;;;10.03;2.73;;;0.40;99.90;;;;;;4967634;28;20220;-83
2023/12/27 08:05:38;;;;;;;8.83;3.03;;;0.40;99.90;;;;;;4985723;28;20238;-83
2023/12/27 08:08:05;;;;;;;12.10;3.73;;;0.30;99.90;;;;;;4970056;28;20229;-84
2023/12/27 08:10:33;;;;;;;9.97;3.73;;;0.30;99.90;;;;;;4961953;28;20659;-84
2023/12/27 08:13:02;;;;;;;8.93;3.87;;;0.30;99.90;;;;;;4962420;28;20292;-83
2023/12/27 08:15:29;;;;;;;8.03;3.63;;;0.30;99.90;;;;;;4968732;28;20235;-84
2023/12/27 08:17:56;;;;;;;14.40;3.80;;;0.30;99.90;;;;;;4983394;28;20225;-84
2023/12/27 08:20:22;;;;;;;11.43;3.70;;;0.30;99.90;;;;;;4965723;28;20228;-84
2023/12/27 08:22:49;;;;;;;12.13;3.90;;;0.30;99.90;;;;;;4994420;28;20782;-85
2023/12/27 08:25:16;;;;;;;11.23;3.70;;;0.40;99.90;;;;;;4964466;28;20293;-83
2023/12/27 08:27:44;;;;;;;13.10;3.60;;;0.40;99.90;;;;;;4966248;28;20268;-84
2023/12/27 08:30:10;;;;;;;11.80;4.03;;;0.40;99.90;;;;;;4964209;28;20747;-84
2023/12/27 08:32:37;;;;;;;13.83;3.90;;;0.40;99.90;;;;;;4963397;28;20319;-85
2023/12/27 08:35:04;;;;;;;10.00;3.60;;;0.40;99.90;;;;;;4968758;28;20227;-85
2023/12/27 08:37:31;;;;;;;10.37;3.23;;;0.50;99.90;;;;;;4967253;28;20872;-83
2023/12/27 08:39:58;;;;;;;9.77;3.80;;;0.50;99.90;;;;;;4964236;28;20231;-85
2023/12/27 08:42:25;;;;;;;46.63;6.17;;;0.60;99.90;;;;;;4992224;28;20228;-85
2023/12/27 08:44:53;;;;;;;15.07;4.23;;;0.60;99.90;;;;;;4966616;28;20248;-84
2023/12/27 08:47:20;;;;;;;14.03;4.73;;;0.70;99.90;;;;;;4959079;28;20243;-83
2023/12/27 08:49:47;;;;;;;13.13;6.57;;;0.70;99.90;;;;;;4947244;28;21249;-86
2023/12/27 08:52:13;;;;;;;20.60;5.97;;;0.80;99.90;;;;;;4948645;28;20710;-83
2023/12/27 08:54:40;;;;;;;9.47;3.90;;;0.90;99.90;;;;;;4968274;28;20231;-85
2023/12/27 08:57:07;;;;;;;11.43;4.03;;;0.90;99.90;;;;;;4984633;28;20248;-85
2023/12/27 08:59:34;;;;;;;12.70;3.87;;;1.00;99.90;;;;;;4996486;28;20227;-84
2023/12/27 09:02:03;;;;;;;8.23;3.27;;;1.10;99.90;;;;;;4962784;28;20662;-85
2023/12/27 09:04:31;;;;;;;15.33;4.00;;;1.20;99.90;;;;;;4983852;28;20228;-83
2023/12/27 09:06:58;;;;;;;12.27;4.43;;;1.30;99.90;;;;;;4965268;28;20650;-85
2023/12/27 09:09:25;;;;;;;10.30;3.87;;;1.40;99.90;;;;;;4967740;28;20311;-85
2023/12/27 09:11:52;;;;;;;15.37;3.53;;;1.40;99.90;;;;;;4964989;28;20311;-84
2023/12/27 09:14:18;;;;;;;14.23;3.80;;;1.50;99.90;;;;;;4963988;28;20253;-83
2023/12/27 09:16:45;;;;;;;9.17;3.20;;;1.60;99.90;;;;;;4949043;28;20305;-83
2023/12/27 09:19:13;;;;;;;11.43;3.00;;;1.60;99.90;;;;;;4955139;28;20284;-83
2023/12/27 09:21:44;;;;;;;9.53;3.07;;;1.70;99.90;;;;;;4967153;28;20293;-84
2023/12/27 09:24:11;;;;;;;11.23;3.83;;;1.80;99.90;;;;;;4967520;28;20215;-83
2023/12/27 09:26:37;;;;;;;12.33;3.20;;;1.80;99.90;;;;;;4966609;28;20239;-83
2023/12/27 09:29:04;;;;;;;12.17;3.20;;;1.90;99.90;;;;;;4970277;28;20683;-83
2023/12/27 09:31:31;;;;;;;7.43;2.90;;;1.90;99.90;;;;;;4970030;28;20699;-82
2023/12/27 09:33:59;;;;;;;15.30;3.57;;;2.00;99.90;;;;;;4972696;28;20233;-83
2023/12/27 09:36:27;;;;;;;8.17;2.80;;;2.00;99.90;;;;;;4975533;28;20323;-83
2023/12/27 09:38:54;;;;;;;9.07;2.73;;;2.00;99.90;;;;;;4969757;28;20232;-82
2023/12/27 09:41:21;;;;;;;11.27;3.70;;;2.10;99.90;;;;;;4966321;28;20219;-81
2023/12/27 09:43:50;;;;;;;10.50;2.83;;;2.10;99.90;;;;;;4966984;28;20322;-81
2023/12/27 09:46:18;;;;;;;11.33;3.50;;;2.10;99.90;;;;;;4965523;28;20652;-82
2023/12/27 09:48:46;;;;;;;10.70;3.13;;;2.20;99.90;;;;;;4998037;28;20227;-83
2023/12/27 09:51:13;;;;;;;10.80;2.90;;;2.20;99.90;;;;;;5003598;28;20221;-82
2023/12/27 09:53:42;;;;;;;7.30;3.07;;;2.20;99.90;;;;;;4967172;28;20235;-82
2023/12/27 09:56:09;;;;;;;13.57;3.07;;;2.20;99.90;;;;;;4972433;28;20292;-81
2023/12/27 09:58:37;;;;;;;12.77;2.77;;;2.20;99.90;;;;;;4968283;28;20290;-82
2023/12/27 10:01:06;;;;;;;10.80;2.60;;;2.20;99.90;;;;;;4967377;28;20262;-83
2023/12/27 10:03:35;;;;;;;12.90;2.63;;;2.30;99.90;;;;;;4971774;28;20311;-81
2023/12/27 10:06:15;;;;;;;13.73;3.23;;;2.30;99.90;;;;;;4968854;28;20719;-82
2023/12/27 10:08:43;;;;;;;10.43;3.23;;;2.30;99.90;;;;;;4969385;28;20769;-82
2023/12/27 10:11:11;;;;;;;13.77;2.67;;;2.30;99.90;;;;;;4967599;28;20660;-84
2023/12/27 10:13:39;;;;;;;12.53;3.07;;;2.40;99.90;;;;;;4972246;28;20240;-84
2023/12/27 10:16:07;;;;;;;15.40;3.20;;;2.40;99.90;;;;;;4969540;28;20813;-83
2023/12/27 10:18:33;;;;;;;10.13;2.87;;;2.40;99.90;;;;;;4966181;28;20260;-85
2023/12/27 10:21:00;;;;;;;9.43;2.70;;;2.50;99.90;;;;;;4970097;28;20746;-85
2023/12/27 10:23:27;;;;;;;10.87;2.57;;;2.50;99.90;;;;;;4965344;28;20232;-82
2023/12/27 10:25:55;;;;;;;10.10;2.93;;;2.60;99.90;;;;;;4975345;28;20255;-83
2023/12/27 10:28:23;;;;;;;8.97;2.50;;;2.60;99.90;;;;;;4958574;28;20306;-84
2023/12/27 10:30:51;;;;;;;15.03;2.97;;;2.60;99.90;;;;;;4957221;28;20223;-84
2023/12/27 10:33:19;;;;;;;13.70;2.83;;;2.70;99.90;;;;;;4972903;28;20668;-83
2023/12/27 10:35:46;;;;;;;9.27;2.60;;;2.80;99.90;;;;;;4997022;28;20234;-83
2023/12/27 10:38:13;;;;;;;10.57;2.67;;;2.80;99.90;;;;;;4982825;28;20629;-83
2023/12/27 10:40:40;;;;;;;10.20;2.63;;;2.90;99.90;;;;;;4965653;28;20608;-83
2023/12/27 10:43:08;;;;;;;8.63;2.50;;;2.90;99.90;;;;;;4963096;28;21721;-83
2023/12/27 10:45:37;;;;;;;12.17;2.73;;;3.00;99.90;;;;;;4962516;28;20220;-84
2023/12/27 10:48:05;;;;;;;10.63;2.60;;;3.00;99.90;;;;;;4968567;28;20322;-84
2023/12/27 10:50:33;;;;;;;12.03;3.47;;;3.10;99.90;;;;;;4964649;28;20258;-85
2023/12/27 10:53:03;;;;;;;7.47;3.50;;;3.10;99.90;;;;;;4961313;28;20252;-84
2023/12/27 10:55:31;;;;;;;8.77;4.27;;;3.20;99.90;;;;;;4962803;28;20311;-84
2023/12/27 10:58:00;;;;;;;11.83;3.03;;;3.20;99.90;;;;;;4963166;28;20261;-84
2023/12/27 11:00:29;;;;;;;8.47;2.90;;;3.30;99.90;;;;;;4962874;28;20308;-85
2023/12/27 11:02:57;;;;;;;10.37;2.87;;;3.30;99.90;;;;;;4961505;28;20229;-83
2023/12/27 11:05:26;;;;;;;13.97;3.17;;;3.40;99.90;;;;;;4965945;28;20689;-84
2023/12/27 11:07:54;;;;;;;10.03;3.20;;;3.40;99.90;;;;;;4961569;28;20235;-83
2023/12/27 11:10:22;;;;;;;12.13;2.83;;;3.40;99.90;;;;;;4969240;28;20229;-84
2023/12/27 11:12:50;;;;;;;9.87;2.90;;;3.50;99.90;;;;;;4967256;28;20230;-85
2023/12/27 11:15:18;;;;;;;11.67;3.60;;;3.50;99.90;;;;;;4966970;28;20323;-84
2023/12/27 11:17:49;;;;;;;7.97;3.03;;;3.50;99.90;;;;;;4963891;28;20322;-83
2023/12/27 11:20:19;;;;;;;10.63;3.13;;;3.60;99.90;;;;;;4979770;28;20259;-85
2023/12/27 11:22:46;;;;;;;10.57;3.00;;;3.70;99.90;;;;;;4965292;28;20241;-83
2023/12/27 11:25:14;;;;;;;9.10;2.63;;;3.70;99.90;;;;;;4965579;28;20225;-83
2023/12/27 11:27:42;;;;;;;8.13;3.20;;;3.70;99.90;;;;;;4965349;28;20244;-83
2023/12/27 11:30:11;;;;;;;7.00;2.40;;;3.80;99.90;;;;;;4964982;28;20232;-84
2023/12/27 11:32:40;;;;;;;9.17;3.03;;;3.80;99.90;;;;;;4961901;28;20792;-83
2023/12/27 11:35:10;;;;;;;11.17;2.60;;;3.80;99.90;;;;;;4966207;28;20448;-85
2023/12/27 11:37:41;;;;;;;8.00;2.63;;;3.90;99.90;;;;;;4958630;28;20605;-83
2023/12/27 11:40:10;;;;;;;6.97;2.60;;;3.90;99.90;;;;;;4966006;28;20606;-84
2023/12/27 11:42:38;;;;;;;9.30;2.80;;;4.00;99.90;;;;;;4962398;28;20580;-86
2023/12/27 11:45:05;;;;;;;10.07;3.10;;;3.90;99.90;;;;;;4961310;28;20734;-83
2023/12/27 11:47:32;;;;;;;6.70;2.50;;;4.00;99.90;;;;;;4970114;28;20325;-84
2023/12/27 11:50:20;;;;;;;8.73;2.80;;;4.00;99.90;;;;;;4965066;28;20284;-84
2023/12/27 11:52:51;;;;;;;10.67;2.93;;;4.10;99.90;;;;;;4963020;28;20300;-85
2023/12/27 11:55:20;;;;;;;7.73;2.80;;;4.10;99.90;;;;;;4963921;28;20487;-83
2023/12/27 11:57:47;;;;;;;8.07;2.60;;;4.10;99.90;;;;;;4964013;28;20319;-85
2023/12/27 12:00:24;;;;;;;8.67;2.97;;;4.20;99.90;;;;;;4962613;28;20230;-84
2023/12/27 12:02:57;;;;;;;11.97;3.27;;;4.20;99.90;;;;;;4964892;28;20221;-84
2023/12/27 12:05:43;;;;;;;7.57;2.47;;;4.20;99.90;;;;;;4964334;28;20679;-84
2023/12/27 12:08:18;;;;;;;7.83;2.50;;;4.20;99.90;;;;;;4964452;28;20237;-84
2023/12/27 12:11:04;;;;;;;13.37;3.63;;;4.30;99.90;;;;;;4975956;28;20249;-84
2023/12/27 12:13:31;;;;;;;7.07;2.57;;;4.30;99.90;;;;;;4974555;28;20386;-83
2023/12/27 12:15:58;;;;;;;9.23;2.50;;;4.30;99.90;;;;;;4962445;28;20757;-85
2023/12/27 12:18:26;;;;;;;8.70;3.20;;;4.30;99.90;;;;;;4965733;28;20289;-84
2023/12/27 12:20:54;;;;;;;6.87;2.70;;;4.40;99.90;;;;;;4968790;28;20261;-83
2023/12/27 12:23:20;;;;;;;8.53;2.50;;;4.30;99.90;;;;;;4961702;28;20322;-84
2023/12/27 12:25:47;;;;;;;8.10;2.43;;;4.40;99.90;;;;;;4994245;28;20234;-83
2023/12/27 12:28:14;;;;;;;12.27;2.73;;;4.30;99.90;;;;;;4961541;28;20234;-83
2023/12/27 12:30:45;;;;;;;11.93;2.57;;;4.40;99.90;;;;;;4963228;28;20249;-83
2023/12/27 12:33:12;;;;;;;5.50;2.30;;;4.30;99.90;;;;;;4963106;28;20710;-83
2023/12/27 12:35:39;;;;;;;11.03;2.77;;;4.30;99.90;;;;;;4968350;28;20238;-83
2023/12/27 12:38:08;;;;;;;7.07;2.50;;;4.40;99.90;;;;;;4961320;28;20607;-83
2023/12/27 12:40:36;;;;;;;8.20;2.60;;;4.40;99.90;;;;;;4966696;28;20240;-84
2023/12/27 12:43:04;;;;;;;8.83;2.77;;;4.30;99.90;;;;;;4963832;28;20237;-83
2023/12/27 12:45:32;;;;;;;7.97;2.37;;;4.30;99.90;;;;;;4965379;28;20235;-83
2023/12/27 12:47:59;;;;;;;17.60;3.13;;;4.30;99.90;;;;;;4962488;28;20351;-84
2023/12/27 12:50:26;;;;;;;6.93;2.10;;;4.30;99.90;;;;;;4963409;28;20609;-83
2023/12/27 12:52:53;;;;;;;10.07;2.67;;;4.30;99.90;;;;;;4968502;28;20248;-83